Grays, Arkansas
Current Conditions -  °F | °C
As of 6:56 AM on Friday 31 Oct 2014 (Local Time) from KM19 Reporting Station
Clear Clear  
Wind Chill: 41°   Ceiling: Unl
Heat Index: 48°   Visibility: 10mi
Dew Point: 45°   Wind: 17mph
Humidity: 90%   Direction: 340°NNW
Pressure: 30.1"   Gusts: NA
Location:  35.2139°N, 91.1509°W
Report Text: KM19 311156Z AUTO 34015KT 10SM CLR 09/07 A3010 RMK AO2 53021 T00880072 10116 20088 SLP193
Loading
Personal Weather Stations






























Interactive Weather Map
Tropical Storm Tracking
New forecast layout! Learn more

10-Day Weather Forecast

Advertisements
Track Severe Weather on mobile